SBMA

Details ICAO SBMA (MAB)
Name Maraba
Region Brazil
Timezone America/Belem (UTC-3.0)
Plans Departing 17
Arriving 23
Stats Elevation 357 ft / 109 m (AMSL)
Location -5.368588° -49.138025°
Runways 1
Magnetic Variation 20.519° W
Sunrise 2017-04-25 09:17:16 UTC / 2017-04-25 06:17:16 Local
Sunset 2017-04-25 21:13:58 UTC / 2017-04-25 18:13:58 Local
Advertisement - Login to hide

Runways

ID Width Length Bearing (true) Bearing (mag) Surface Threshold Offset Overrun Length
07 148 ft / 45 m 6,582 ft / 2,006 m 50.35° 70.87° Asphalt 0 ft / 0 m 195 ft / 59 m
25 148 ft / 45 m 6,582 ft / 2,006 m 230.35° 250.87° Asphalt 0 ft / 0 m 195 ft / 59 m

Map

Weather

Temperature
Clouds and Precipitation
Forecast for 2017-04-26 06:00 UTC. Updated 43 minutes ago
Winds

METAR

SBMA 260200Z 33002KT 9999 -RA SCT008 BKN070 25/24 Q1012 RETS

TAF

Not found

Frequencies

Tower 125.90 MHz RDO
Warning: Do not use this data for real-world aviation or navigation. No guarantee of current accuracy is given.